sensor_id;sensor_type;location;lat;lon;timestamp;pressure;altitude;pressure_sealevel;temperature;humidity
46714;BME280;32445;51.376;10.874;2023-02-11T00:00:21;101022.34;;;3.94;57.18
46714;BME280;32445;51.376;10.874;2023-02-11T00:03:21;101023.22;;;3.95;57.56
46714;BME280;32445;51.376;10.874;2023-02-11T00:06:22;101001.72;;;3.91;57.63
46714;BME280;32445;51.376;10.874;2023-02-11T00:09:23;101001.72;;;3.91;57.72
46714;BME280;32445;51.376;10.874;2023-02-11T00:12:23;100991.41;;;3.90;57.10
46714;BME280;32445;51.376;10.874;2023-02-11T00:15:23;100980.22;;;3.88;57.70
46714;BME280;32445;51.376;10.874;2023-02-11T00:18:24;100971.63;;;3.86;57.76
46714;BME280;32445;51.376;10.874;2023-02-11T00:21:24;100981.00;;;3.85;58.02
46714;BME280;32445;51.376;10.874;2023-02-11T00:24:25;100987.97;;;3.89;57.30
46714;BME280;32445;51.376;10.874;2023-02-11T00:27:25;100987.97;;;3.89;57.21
46714;BME280;32445;51.376;10.874;2023-02-11T00:30:25;100986.38;;;3.94;57.93
46714;BME280;32445;51.376;10.874;2023-02-11T00:33:26;100983.81;;;3.94;57.40
46714;BME280;32445;51.376;10.874;2023-02-11T00:36:28;100975.22;;;3.94;57.54
46714;BME280;32445;51.376;10.874;2023-02-11T00:39:28;100971.00;;;3.96;57.84
46714;BME280;32445;51.376;10.874;2023-02-11T00:42:29;100971.00;;;3.96;57.24
46714;BME280;32445;51.376;10.874;2023-02-11T00:45:29;100972.63;;;3.92;57.36
46714;BME280;32445;51.376;10.874;2023-02-11T00:48:29;100981.13;;;3.90;57.30
46714;BME280;32445;51.376;10.874;2023-02-11T00:51:30;100992.28;;;3.90;57.65
46714;BME280;32445;51.376;10.874;2023-02-11T00:54:30;100981.13;;;3.90;57.60
46714;BME280;32445;51.376;10.874;2023-02-11T00:57:30;100976.84;;;3.90;57.53
46714;BME280;32445;51.376;10.874;2023-02-11T01:00:31;100983.78;;;3.93;57.32
46714;BME280;32445;51.376;10.874;2023-02-11T01:03:31;101000.88;;;3.92;57.54
46714;BME280;32445;51.376;10.874;2023-02-11T01:06:31;100987.16;;;3.92;57.79
46714;BME280;32445;51.376;10.874;2023-02-11T01:09:32;100984.72;;;3.96;57.81
46714;BME280;32445;51.376;10.874;2023-02-11T01:12:32;101003.63;;;3.98;57.39
46714;BME280;32445;51.376;10.874;2023-02-11T01:15:32;100989.03;;;3.97;57.64
46714;BME280;32445;51.376;10.874;2023-02-11T01:18:33;100982.09;;;3.95;57.84
46714;BME280;32445;51.376;10.874;2023-02-11T01:21:33;100973.56;;;3.96;57.37
46714;BME280;32445;51.376;10.874;2023-02-11T01:24:34;100976.19;;;3.97;57.61
46714;BME280;32445;51.376;10.874;2023-02-11T01:27:35;100953.84;;;3.95;57.88
46714;BME280;32445;51.376;10.874;2023-02-11T01:30:35;100941.03;;;3.96;57.92
46714;BME280;32445;51.376;10.874;2023-02-11T01:33:36;100938.44;;;3.95;57.85
46714;BME280;32445;51.376;10.874;2023-02-11T01:36:36;100922.97;;;3.93;58.02
46714;BME280;32445;51.376;10.874;2023-02-11T01:39:36;100928.97;;;3.94;57.82
46714;BME280;32445;51.376;10.874;2023-02-11T01:42:37;100942.66;;;3.93;58.21
46714;BME280;32445;51.376;10.874;2023-02-11T01:49:01;100957.22;;;3.94;58.51
46714;BME280;32445;51.376;10.874;2023-02-11T01:52:11;100947.88;;;3.96;58.16
46714;BME280;32445;51.376;10.874;2023-02-11T01:55:13;100930.72;;;3.95;58.38
46714;BME280;32445;51.376;10.874;2023-02-11T01:58:34;100932.47;;;3.96;58.65
46714;BME280;32445;51.376;10.874;2023-02-11T02:01:38;100932.47;;;3.96;58.65
46714;BME280;32445;51.376;10.874;2023-02-11T02:04:46;100920.41;;;3.93;58.92
46714;BME280;32445;51.376;10.874;2023-02-11T02:11:00;100915.41;;;3.99;58.55
46714;BME280;32445;51.376;10.874;2023-02-11T02:14:02;100915.50;;;4.03;58.44
46714;BME280;32445;51.376;10.874;2023-02-11T02:17:02;100904.38;;;4.04;58.73
46714;BME280;32445;51.376;10.874;2023-02-11T02:20:27;100905.13;;;3.99;59.19
46714;BME280;32445;51.376;10.874;2023-02-11T02:30:43;100906.31;;;4.14;58.70
46714;BME280;32445;51.376;10.874;2023-02-11T02:33:54;100899.53;;;4.16;58.63
46714;BME280;32445;51.376;10.874;2023-02-11T02:37:08;100887.47;;;4.13;59.28
46714;BME280;32445;51.376;10.874;2023-02-11T02:40:17;100872.97;;;4.15;58.92
46714;BME280;32445;51.376;10.874;2023-02-11T02:43:20;100870.44;;;4.17;59.40
46714;BME280;32445;51.376;10.874;2023-02-11T02:46:28;100864.38;;;4.15;59.69
46714;BME280;32445;51.376;10.874;2023-02-11T02:49:29;100863.53;;;4.16;59.41
46714;BME280;32445;51.376;10.874;2023-02-11T02:56:29;100863.59;;;4.19;59.46
46714;BME280;32445;51.376;10.874;2023-02-11T03:03:07;100843.13;;;4.24;59.57
46714;BME280;32445;51.376;10.874;2023-02-11T03:06:17;100838.13;;;4.28;59.18
46714;BME280;32445;51.376;10.874;2023-02-11T03:12:56;100833.03;;;4.31;59.68
46714;BME280;32445;51.376;10.874;2023-02-11T03:15:58;100834.75;;;4.32;59.49
46714;BME280;32445;51.376;10.874;2023-02-11T03:19:09;100821.91;;;4.34;59.69
46714;BME280;32445;51.376;10.874;2023-02-11T03:22:29;100830.50;;;4.33;59.81
46714;BME280;32445;51.376;10.874;2023-02-11T03:25:37;100827.13;;;4.36;59.92
46714;BME280;32445;51.376;10.874;2023-02-11T03:35:13;100810.88;;;4.40;59.42
46714;BME280;32445;51.376;10.874;2023-02-11T03:38:25;100821.28;;;4.44;59.20
46714;BME280;32445;51.376;10.874;2023-02-11T03:41:29;100816.19;;;4.47;59.19
46714;BME280;32445;51.376;10.874;2023-02-11T03:44:32;100827.50;;;4.56;59.53
46714;BME280;32445;51.376;10.874;2023-02-11T03:47:37;100834.44;;;4.60;58.97
46714;BME280;32445;51.376;10.874;2023-02-11T03:50:40;100839.69;;;4.64;59.22
46714;BME280;32445;51.376;10.874;2023-02-11T03:53:41;100827.72;;;4.68;59.04
46714;BME280;32445;51.376;10.874;2023-02-11T03:56:48;100839.81;;;4.72;58.45
46714;BME280;32445;51.376;10.874;2023-02-11T03:59:52;100836.41;;;4.73;58.76
46714;BME280;32445;51.376;10.874;2023-02-11T04:02:53;100833.06;;;4.77;59.20
46714;BME280;32445;51.376;10.874;2023-02-11T04:05:53;100838.28;;;4.82;58.88
46714;BME280;32445;51.376;10.874;2023-02-11T04:08:54;100842.63;;;4.84;58.62
46714;BME280;32445;51.376;10.874;2023-02-11T04:11:54;100839.19;;;4.85;58.93
46714;BME280;32445;51.376;10.874;2023-02-11T04:14:54;100835.84;;;4.88;58.62
46714;BME280;32445;51.376;10.874;2023-02-11T04:17:54;100824.75;;;4.92;58.58
46714;BME280;32445;51.376;10.874;2023-02-11T04:20:55;100815.41;;;4.96;58.64
46714;BME280;32445;51.376;10.874;2023-02-11T04:23:55;100811.13;;;4.96;58.54
46714;BME280;32445;51.376;10.874;2023-02-11T04:26:55;100806.78;;;4.95;58.77
46714;BME280;32445;51.376;10.874;2023-02-11T04:29:56;100813.72;;;4.98;58.97
46714;BME280;32445;51.376;10.874;2023-02-11T04:32:57;100818.94;;;5.02;58.71
46714;BME280;32445;51.376;10.874;2023-02-11T04:35:57;100820.66;;;5.03;58.88
46714;BME280;32445;51.376;10.874;2023-02-11T04:38:58;100834.38;;;5.02;58.80
46714;BME280;32445;51.376;10.874;2023-02-11T04:41:58;100844.72;;;5.06;58.79
46714;BME280;32445;51.376;10.874;2023-02-11T04:44:58;100850.00;;;5.12;58.52
46714;BME280;32445;51.376;10.874;2023-02-11T04:48:01;100841.47;;;5.14;58.48
46714;BME280;32445;51.376;10.874;2023-02-11T04:51:02;100843.22;;;5.18;57.97
46714;BME280;32445;51.376;10.874;2023-02-11T04:54:02;100860.47;;;5.23;57.91
46714;BME280;32445;51.376;10.874;2023-02-11T04:57:02;100864.81;;;5.27;58.30
46714;BME280;32445;51.376;10.874;2023-02-11T05:00:04;100863.22;;;5.32;57.78
46714;BME280;32445;51.376;10.874;2023-02-11T05:03:05;100874.44;;;5.37;57.75
46714;BME280;32445;51.376;10.874;2023-02-11T05:06:05;100861.59;;;5.38;57.58
46714;BME280;32445;51.376;10.874;2023-02-11T05:09:06;100853.88;;;5.38;57.84
46714;BME280;32445;51.376;10.874;2023-02-11T05:12:06;100847.03;;;5.39;57.75
46714;BME280;32445;51.376;10.874;2023-02-11T05:15:07;100852.22;;;5.42;57.53
46714;BME280;32445;51.376;10.874;2023-02-11T05:18:07;100848.84;;;5.45;57.67
46714;BME280;32445;51.376;10.874;2023-02-11T05:21:12;100847.09;;;5.44;57.83
46714;BME280;32445;51.376;10.874;2023-02-11T05:24:12;100847.94;;;5.43;57.74
46714;BME280;32445;51.376;10.874;2023-02-11T05:27:13;100849.66;;;5.44;57.87
46714;BME280;32445;51.376;10.874;2023-02-11T05:30:13;100851.41;;;5.45;58.33
46714;BME280;32445;51.376;10.874;2023-02-11T05:33:14;100843.72;;;5.46;58.58
46714;BME280;32445;51.376;10.874;2023-02-11T05:36:14;100843.69;;;5.45;58.34
46714;BME280;32445;51.376;10.874;2023-02-11T05:39:15;100847.13;;;5.47;58.64
46714;BME280;32445;51.376;10.874;2023-02-11T05:42:16;100837.75;;;5.49;58.16
46714;BME280;32445;51.376;10.874;2023-02-11T05:45:16;100842.06;;;5.51;58.20
46714;BME280;32445;51.376;10.874;2023-02-11T05:48:17;100839.56;;;5.54;58.13
46714;BME280;32445;51.376;10.874;2023-02-11T05:51:17;100831.84;;;5.56;58.25
46714;BME280;32445;51.376;10.874;2023-02-11T05:54:18;100834.44;;;5.58;58.16
46714;BME280;32445;51.376;10.874;2023-02-11T05:57:18;100834.47;;;5.59;58.34
46714;BME280;32445;51.376;10.874;2023-02-11T06:00:18;100836.28;;;5.66;58.31
46714;BME280;32445;51.376;10.874;2023-02-11T06:03:19;100838.91;;;5.69;58.24
46714;BME280;32445;51.376;10.874;2023-02-11T06:06:19;100837.22;;;5.73;58.24
46714;BME280;32445;51.376;10.874;2023-02-11T06:09:20;100828.66;;;5.74;58.13
46714;BME280;32445;51.376;10.874;2023-02-11T06:12:20;100838.97;;;5.74;57.96
46714;BME280;32445;51.376;10.874;2023-02-11T06:15:20;100841.53;;;5.72;58.15
46714;BME280;32445;51.376;10.874;2023-02-11T06:18:21;100838.97;;;5.74;58.44
46714;BME280;32445;51.376;10.874;2023-02-11T06:21:21;100830.41;;;5.75;58.63
46714;BME280;32445;51.376;10.874;2023-02-11T06:24:22;100825.25;;;5.74;58.49
46714;BME280;32445;51.376;10.874;2023-02-11T06:27:22;100826.06;;;5.71;58.62
46714;BME280;32445;51.376;10.874;2023-02-11T06:30:23;100826.88;;;5.70;59.08
46714;BME280;32445;51.376;10.874;2023-02-11T06:33:23;100823.44;;;5.68;58.97
46714;BME280;32445;51.376;10.874;2023-02-11T06:36:24;100836.34;;;5.69;59.20
46714;BME280;32445;51.376;10.874;2023-02-11T06:39:24;100826.03;;;5.69;59.23
46714;BME280;32445;51.376;10.874;2023-02-11T06:42:25;100813.97;;;5.68;59.42
46714;BME280;32445;51.376;10.874;2023-02-11T06:45:25;100821.66;;;5.64;59.31
46714;BME280;32445;51.376;10.874;2023-02-11T06:48:25;100820.78;;;5.63;59.68
46714;BME280;32445;51.376;10.874;2023-02-11T06:51:26;100822.50;;;5.64;59.66
46714;BME280;32445;51.376;10.874;2023-02-11T06:54:26;100828.56;;;5.66;59.51
46714;BME280;32445;51.376;10.874;2023-02-11T06:57:26;100833.72;;;5.66;59.65
46714;BME280;32445;51.376;10.874;2023-02-11T07:00:27;100836.28;;;5.65;59.98
46714;BME280;32445;51.376;10.874;2023-02-11T07:03:28;100838.03;;;5.67;60.13
46714;BME280;32445;51.376;10.874;2023-02-11T07:06:29;100836.28;;;5.66;60.30
46714;BME280;32445;51.376;10.874;2023-02-11T07:09:29;100821.63;;;5.62;60.35
46714;BME280;32445;51.376;10.874;2023-02-11T07:12:30;100818.25;;;5.65;60.24
46714;BME280;32445;51.376;10.874;2023-02-11T07:15:31;100834.56;;;5.65;60.50
46714;BME280;32445;51.376;10.874;2023-02-11T07:18:31;100850.91;;;5.67;60.26
46714;BME280;32445;51.376;10.874;2023-02-11T07:21:31;100850.09;;;5.71;60.33
46714;BME280;32445;51.376;10.874;2023-02-11T07:24:32;100845.84;;;5.74;60.28
46714;BME280;32445;51.376;10.874;2023-02-11T07:27:32;100855.31;;;5.75;60.09
46714;BME280;32445;51.376;10.874;2023-02-11T07:30:32;100845.81;;;5.72;60.43
46714;BME280;32445;51.376;10.874;2023-02-11T07:33:34;100852.75;;;5.75;60.35
46714;BME280;32445;51.376;10.874;2023-02-11T07:36:35;100853.59;;;5.75;60.17
46714;BME280;32445;51.376;10.874;2023-02-11T07:39:35;100859.63;;;5.77;60.11
46714;BME280;32445;51.376;10.874;2023-02-11T07:42:36;100850.22;;;5.79;60.21
46714;BME280;32445;51.376;10.874;2023-02-11T07:45:37;100852.81;;;5.81;60.08
46714;BME280;32445;51.376;10.874;2023-02-11T07:48:38;100845.13;;;5.84;59.84
46714;BME280;32445;51.376;10.874;2023-02-11T07:51:38;100853.75;;;5.86;59.76
46714;BME280;32445;51.376;10.874;2023-02-11T07:54:39;100846.09;;;5.91;59.85
46714;BME280;32445;51.376;10.874;2023-02-11T07:57:39;100847.00;;;5.94;59.45
46714;BME280;32445;51.376;10.874;2023-02-11T08:00:40;100846.22;;;5.98;60.07
46714;BME280;32445;51.376;10.874;2023-02-11T08:03:41;100852.25;;;5.99;60.20
46714;BME280;32445;51.376;10.874;2023-02-11T08:06:42;100854.00;;;6.01;60.29
46714;BME280;32445;51.376;10.874;2023-02-11T08:09:43;100864.34;;;6.04;60.19
46714;BME280;32445;51.376;10.874;2023-02-11T08:12:44;100848.97;;;6.08;59.89
46714;BME280;32445;51.376;10.874;2023-02-11T08:15:44;100849.84;;;6.10;60.11
46714;BME280;32445;51.376;10.874;2023-02-11T08:18:45;100859.38;;;6.15;59.87
46714;BME280;32445;51.376;10.874;2023-02-11T08:21:46;100850.00;;;6.20;59.76
46714;BME280;32445;51.376;10.874;2023-02-11T08:24:46;100862.91;;;6.23;59.87
46714;BME280;32445;51.376;10.874;2023-02-11T08:27:46;100850.03;;;6.23;59.84
46714;BME280;32445;51.376;10.874;2023-02-11T08:30:47;100851.81;;;6.28;59.75
46714;BME280;32445;51.376;10.874;2023-02-11T08:33:47;100858.69;;;6.30;59.88
46714;BME280;32445;51.376;10.874;2023-02-11T08:36:48;100862.19;;;6.34;59.67
46714;BME280;32445;51.376;10.874;2023-02-11T08:39:48;100859.63;;;6.34;59.27
46714;BME280;32445;51.376;10.874;2023-02-11T08:42:49;100860.47;;;6.36;59.33
46714;BME280;32445;51.376;10.874;2023-02-11T08:45:49;100865.75;;;6.42;59.54
46714;BME280;32445;51.376;10.874;2023-02-11T08:48:50;100875.13;;;6.38;59.58
46714;BME280;32445;51.376;10.874;2023-02-11T08:51:50;100876.75;;;6.30;59.84
46714;BME280;32445;51.376;10.874;2023-02-11T08:54:51;100862.97;;;6.27;60.09
46714;BME280;32445;51.376;10.874;2023-02-11T08:57:51;100857.81;;;6.28;59.93
46714;BME280;32445;51.376;10.874;2023-02-11T09:00:51;100856.97;;;6.28;59.88
46714;BME280;32445;51.376;10.874;2023-02-11T09:03:52;100848.31;;;6.26;60.03
46714;BME280;32445;51.376;10.874;2023-02-11T09:06:52;100846.63;;;6.26;59.96
46714;BME280;32445;51.376;10.874;2023-02-11T09:09:53;100854.31;;;6.24;60.15
46714;BME280;32445;51.376;10.874;2023-02-11T09:12:53;100862.09;;;6.26;60.08
46714;BME280;32445;51.376;10.874;2023-02-11T09:15:54;100862.16;;;6.32;60.43
46714;BME280;32445;51.376;10.874;2023-02-11T09:18:59;100871.69;;;6.36;60.25
46714;BME280;32445;51.376;10.874;2023-02-11T09:22:00;100879.50;;;6.44;59.95
46714;BME280;32445;51.376;10.874;2023-02-11T09:25:00;100882.09;;;6.46;60.31
46714;BME280;32445;51.376;10.874;2023-02-11T09:28:01;100879.56;;;6.49;60.31
46714;BME280;32445;51.376;10.874;2023-02-11T09:31:13;100867.53;;;6.48;60.93
46714;BME280;32445;51.376;10.874;2023-02-11T09:34:14;100873.63;;;6.56;61.19
46714;BME280;32445;51.376;10.874;2023-02-11T09:37:14;100872.84;;;6.62;60.50
46714;BME280;32445;51.376;10.874;2023-02-11T09:40:16;100873.72;;;6.61;60.82
46714;BME280;32445;51.376;10.874;2023-02-11T09:43:18;100872.00;;;6.64;61.25
46714;BME280;32445;51.376;10.874;2023-02-11T09:46:20;100870.38;;;6.71;61.37
46714;BME280;32445;51.376;10.874;2023-02-11T09:49:38;100869.56;;;6.75;61.58
46714;BME280;32445;51.376;10.874;2023-02-11T09:52:49;100873.09;;;6.83;61.54
46714;BME280;32445;51.376;10.874;2023-02-11T09:55:56;100868.88;;;6.90;61.72
46714;BME280;32445;51.376;10.874;2023-02-11T09:58:58;100868.06;;;6.96;61.35
46714;BME280;32445;51.376;10.874;2023-02-11T10:02:09;100862.91;;;6.97;61.31
46714;BME280;32445;51.376;10.874;2023-02-11T10:25:53;100898.66;;;7.44;61.84
46714;BME280;32445;51.376;10.874;2023-02-11T10:28:58;100892.78;;;7.58;61.01
46714;BME280;32445;51.376;10.874;2023-02-11T10:32:03;100889.41;;;7.67;61.40
46714;BME280;32445;51.376;10.874;2023-02-11T10:35:15;100890.31;;;7.75;61.21
46714;BME280;32445;51.376;10.874;2023-02-11T10:38:17;100899.88;;;7.85;61.18
46714;BME280;32445;51.376;10.874;2023-02-11T10:41:25;100897.34;;;7.93;60.98
46714;BME280;32445;51.376;10.874;2023-02-11T10:44:33;100890.53;;;8.03;61.45
46714;BME280;32445;51.376;10.874;2023-02-11T10:47:36;100890.56;;;8.10;61.08
46714;BME280;32445;51.376;10.874;2023-02-11T10:50:38;100898.34;;;8.17;60.69
46714;BME280;32445;51.376;10.874;2023-02-11T10:53:38;100896.66;;;8.23;60.59
46714;BME280;32445;51.376;10.874;2023-02-11T10:59:46;100888.97;;;8.36;60.81
46714;BME280;32445;51.376;10.874;2023-02-11T11:02:52;100897.63;;;8.42;59.85
46714;BME280;32445;51.376;10.874;2023-02-11T11:05:58;100890.78;;;8.46;60.13
46714;BME280;32445;51.376;10.874;2023-02-11T11:09:00;100894.22;;;8.45;60.10
46714;BME280;32445;51.376;10.874;2023-02-11T11:12:01;100882.97;;;8.41;60.19
46714;BME280;32445;51.376;10.874;2023-02-11T11:18:15;100883.81;;;8.39;60.26
46714;BME280;32445;51.376;10.874;2023-02-11T11:21:34;100881.25;;;8.40;60.41
46714;BME280;32445;51.376;10.874;2023-02-11T11:24:43;100870.03;;;8.41;60.56
46714;BME280;32445;51.376;10.874;2023-02-11T11:27:53;100867.47;;;8.43;60.61
46714;BME280;32445;51.376;10.874;2023-02-11T11:30:55;100870.94;;;8.48;60.35
46714;BME280;32445;51.376;10.874;2023-02-11T11:34:00;100866.66;;;8.55;60.71
46714;BME280;32445;51.376;10.874;2023-02-11T11:37:12;100864.09;;;8.56;60.19
46714;BME280;32445;51.376;10.874;2023-02-11T11:43:17;100854.63;;;8.63;60.14
46714;BME280;32445;51.376;10.874;2023-02-11T11:46:37;100865.81;;;8.59;59.93
46714;BME280;32445;51.376;10.874;2023-02-11T11:56:13;100871.91;;;8.67;60.33
46714;BME280;32445;51.376;10.874;2023-02-11T11:59:15;100871.06;;;8.74;59.70
46714;BME280;32445;51.376;10.874;2023-02-11T12:06:06;100885.72;;;8.75;59.86
46714;BME280;32445;51.376;10.874;2023-02-11T12:09:43;100873.66;;;8.79;60.24
46714;BME280;32445;51.376;10.874;2023-02-11T12:16:21;100882.28;;;8.79;59.86
46714;BME280;32445;51.376;10.874;2023-02-11T12:23:08;100869.34;;;8.78;59.60
46714;BME280;32445;51.376;10.874;2023-02-11T12:26:25;100886.63;;;8.80;60.01
46714;BME280;32445;51.376;10.874;2023-02-11T12:33:02;100880.59;;;8.81;60.17
46714;BME280;32445;51.376;10.874;2023-02-11T12:43:38;100877.09;;;8.81;60.36
46714;BME280;32445;51.376;10.874;2023-02-11T12:46:49;100874.53;;;8.82;60.91
46714;BME280;32445;51.376;10.874;2023-02-11T12:56:41;100867.66;;;8.86;60.62
46714;BME280;32445;51.376;10.874;2023-02-11T13:06:15;100870.22;;;8.85;61.17
46714;BME280;32445;51.376;10.874;2023-02-11T13:09:33;100878.00;;;8.81;60.52
46714;BME280;32445;51.376;10.874;2023-02-11T13:12:35;100880.59;;;8.85;60.34
46714;BME280;32445;51.376;10.874;2023-02-11T13:16:06;100871.06;;;8.82;60.67
46714;BME280;32445;51.376;10.874;2023-02-11T13:22:19;100889.19;;;8.82;61.03
46714;BME280;32445;51.376;10.874;2023-02-11T13:25:31;100885.75;;;8.80;61.50
46714;BME280;32445;51.376;10.874;2023-02-11T13:28:55;100884.03;;;8.80;61.20
46714;BME280;32445;51.376;10.874;2023-02-11T13:32:11;100888.31;;;8.75;61.41
46714;BME280;32445;51.376;10.874;2023-02-11T13:35:36;100887.44;;;8.73;61.36
46714;BME280;32445;51.376;10.874;2023-02-11T13:38:37;100890.94;;;8.80;61.50
46714;BME280;32445;51.376;10.874;2023-02-11T13:41:39;100889.19;;;8.82;61.05
46714;BME280;32445;51.376;10.874;2023-02-11T13:44:40;100894.38;;;8.88;61.15
46714;BME280;32445;51.376;10.874;2023-02-11T13:47:40;100890.94;;;8.88;61.39
46714;BME280;32445;51.376;10.874;2023-02-11T13:50:45;100887.50;;;8.89;60.76
46714;BME280;32445;51.376;10.874;2023-02-11T13:53:49;100890.09;;;8.89;61.29
46714;BME280;32445;51.376;10.874;2023-02-11T13:57:15;100889.22;;;8.87;61.42
46714;BME280;32445;51.376;10.874;2023-02-11T14:03:35;100895.28;;;8.96;60.91
46714;BME280;32445;51.376;10.874;2023-02-11T14:10:50;100893.53;;;8.95;61.40
46714;BME280;32445;51.376;10.874;2023-02-11T14:20:32;100903.06;;;8.98;61.81
46714;BME280;32445;51.376;10.874;2023-02-11T14:23:34;100898.78;;;9.08;61.66
46714;BME280;32445;51.376;10.874;2023-02-11T14:26:46;100894.47;;;9.14;60.63
46714;BME280;32445;51.376;10.874;2023-02-11T14:30:01;100906.53;;;9.11;60.59
46714;BME280;32445;51.376;10.874;2023-02-11T14:36:46;100893.59;;;9.02;61.40
46714;BME280;32445;51.376;10.874;2023-02-11T14:43:50;100889.25;;;8.94;62.00
46714;BME280;32445;51.376;10.874;2023-02-11T14:46:53;100901.31;;;8.94;61.68
46714;BME280;32445;51.376;10.874;2023-02-11T14:49:54;100904.78;;;8.96;62.16
46714;BME280;32445;51.376;10.874;2023-02-11T14:52:57;100916.00;;;8.98;61.53
46714;BME280;32445;51.376;10.874;2023-02-11T14:55:59;100928.94;;;8.95;62.46
46714;BME280;32445;51.376;10.874;2023-02-11T14:59:00;100934.13;;;8.95;62.36
46714;BME280;32445;51.376;10.874;2023-02-11T15:02:02;100936.72;;;8.93;62.06
46714;BME280;32445;51.376;10.874;2023-02-11T15:08:16;100942.78;;;9.00;61.98
46714;BME280;32445;51.376;10.874;2023-02-11T15:11:19;100950.56;;;9.02;61.79
46714;BME280;32445;51.376;10.874;2023-02-11T15:14:26;100947.09;;;9.01;62.32
46714;BME280;32445;51.376;10.874;2023-02-11T15:17:29;100953.16;;;9.02;62.24
46714;BME280;32445;51.376;10.874;2023-02-11T15:20:32;100957.44;;;8.99;62.31
46714;BME280;32445;51.376;10.874;2023-02-11T15:23:32;100954.00;;;9.00;61.93
46714;BME280;32445;51.376;10.874;2023-02-11T15:26:33;100959.19;;;9.02;62.16
46714;BME280;32445;51.376;10.874;2023-02-11T15:29:36;100957.44;;;8.96;62.18
46714;BME280;32445;51.376;10.874;2023-02-11T15:32:42;100966.94;;;8.97;61.95
46714;BME280;32445;51.376;10.874;2023-02-11T15:35:43;100974.72;;;8.99;61.79
46714;BME280;32445;51.376;10.874;2023-02-11T15:38:44;100968.69;;;9.00;62.26
46714;BME280;32445;51.376;10.874;2023-02-11T15:41:44;100964.38;;;9.05;61.60
46714;BME280;32445;51.376;10.874;2023-02-11T15:44:45;100966.13;;;9.09;61.95
46714;BME280;32445;51.376;10.874;2023-02-11T15:47:58;100963.53;;;9.11;61.95
46714;BME280;32445;51.376;10.874;2023-02-11T15:51:02;100969.59;;;9.10;61.58
46714;BME280;32445;51.376;10.874;2023-02-11T15:54:15;100969.56;;;9.04;62.25
46714;BME280;32445;51.376;10.874;2023-02-11T15:57:16;100961.78;;;9.02;62.23
46714;BME280;32445;51.376;10.874;2023-02-11T16:00:19;100960.91;;;8.97;63.07
46714;BME280;32445;51.376;10.874;2023-02-11T16:03:23;100958.28;;;8.92;63.16
46714;BME280;32445;51.376;10.874;2023-02-11T16:06:44;100964.34;;;8.90;63.02
46714;BME280;32445;51.376;10.874;2023-02-11T16:09:56;100960.88;;;8.92;62.93
46714;BME280;32445;51.376;10.874;2023-02-11T16:16:14;100955.69;;;8.95;62.60
46714;BME280;32445;51.376;10.874;2023-02-11T16:19:18;100941.91;;;8.95;62.84
46714;BME280;32445;51.376;10.874;2023-02-11T16:22:23;100950.53;;;8.94;63.25
46714;BME280;32445;51.376;10.874;2023-02-11T16:25:24;100955.69;;;8.94;62.61
46714;BME280;32445;51.376;10.874;2023-02-11T16:28:25;100958.28;;;8.91;62.70
46714;BME280;32445;51.376;10.874;2023-02-11T16:31:32;100959.19;;;8.94;62.47
46714;BME280;32445;51.376;10.874;2023-02-11T16:34:33;100963.47;;;8.94;62.41
46714;BME280;32445;51.376;10.874;2023-02-11T16:37:33;100961.75;;;8.94;62.71
46714;BME280;32445;51.376;10.874;2023-02-11T16:40:34;100971.22;;;8.92;62.65
46714;BME280;32445;51.376;10.874;2023-02-11T16:43:34;100968.66;;;8.92;62.55
46714;BME280;32445;51.376;10.874;2023-02-11T16:46:35;100976.41;;;8.88;62.28
46714;BME280;32445;51.376;10.874;2023-02-11T16:49:39;100989.34;;;8.85;63.42
46714;BME280;32445;51.376;10.874;2023-02-11T16:52:41;100989.31;;;8.78;63.53
46714;BME280;32445;51.376;10.874;2023-02-11T16:55:42;101003.13;;;8.77;63.34
46714;BME280;32445;51.376;10.874;2023-02-11T16:58:43;100987.56;;;8.74;63.00
46714;BME280;32445;51.376;10.874;2023-02-11T17:01:44;100984.09;;;8.72;63.61
46714;BME280;32445;51.376;10.874;2023-02-11T17:04:45;100992.75;;;8.73;63.65
46714;BME280;32445;51.376;10.874;2023-02-11T17:07:46;100999.63;;;8.71;63.52
46714;BME280;32445;51.376;10.874;2023-02-11T17:10:47;101009.09;;;8.67;63.32
46714;BME280;32445;51.376;10.874;2023-02-11T17:13:47;101013.38;;;8.62;64.34
46714;BME280;32445;51.376;10.874;2023-02-11T17:16:48;101012.50;;;8.57;64.19
46714;BME280;32445;51.376;10.874;2023-02-11T17:19:48;101011.59;;;8.55;64.53
46714;BME280;32445;51.376;10.874;2023-02-11T17:22:50;101002.97;;;8.51;65.03
46714;BME280;32445;51.376;10.874;2023-02-11T17:25:54;101015.00;;;8.49;64.88
46714;BME280;32445;51.376;10.874;2023-02-11T17:28:55;101009.84;;;8.47;64.80
46714;BME280;32445;51.376;10.874;2023-02-11T17:31:55;101009.81;;;8.46;64.95
46714;BME280;32445;51.376;10.874;2023-02-11T17:34:56;101003.81;;;8.47;64.93
46714;BME280;32445;51.376;10.874;2023-02-11T17:37:56;101004.63;;;8.44;65.35
46714;BME280;32445;51.376;10.874;2023-02-11T17:40:59;101023.63;;;8.46;65.26
46714;BME280;32445;51.376;10.874;2023-02-11T17:44:01;101015.00;;;8.44;65.05
46714;BME280;32445;51.376;10.874;2023-02-11T17:47:01;101022.75;;;8.44;65.66
46714;BME280;32445;51.376;10.874;2023-02-11T17:50:02;101025.31;;;8.43;64.76
46714;BME280;32445;51.376;10.874;2023-02-11T17:53:02;101027.88;;;8.43;65.41
46714;BME280;32445;51.376;10.874;2023-02-11T17:56:03;101035.72;;;8.46;65.15
46714;BME280;32445;51.376;10.874;2023-02-11T17:59:08;101037.44;;;8.45;65.35
46714;BME280;32445;51.376;10.874;2023-02-11T18:02:12;101038.28;;;8.46;65.49
46714;BME280;32445;51.376;10.874;2023-02-11T18:05:12;101048.66;;;8.49;65.41
46714;BME280;32445;51.376;10.874;2023-02-11T18:08:13;101045.22;;;8.50;65.43
46714;BME280;32445;51.376;10.874;2023-02-11T18:11:14;101052.16;;;8.51;65.00